Lucinda, Pennsylvania
Current Conditions -  °F | °C
As of 2:53 AM on Friday 19 Dec 2014 (Local Time) from KDUJ Reporting Station
Overcast Overcast  
Wind Chill: 16°   Ceiling: 500
Heat Index: 26°   Visibility: 7mi
Dew Point: 25°   Wind: 12mph
Humidity: 96%   Direction: 270°W
Pressure: 30.03"   Gusts: NA
Location:  41.31°N, 79.37°W
Report Text: KDUJ 190753Z AUTO 27010KT 7SM OVC005 M03/M04 A3003 RMK AO2 SLP193 I1001 T10331039
Loading
Personal Weather Stations






























Interactive Weather Map New forecast layout! Learn more

10-Day Weather Forecast

Advertisements
Track Severe Weather on mobile